Dayton, Tennessee
Current Conditions -  °F | °C
As of 11:35 PM on Thursday 27 Nov 2014 (Local Time) from KRZR Reporting Station
Overcast Overcast  
Wind Chill: 26°   Ceiling: 3000
Heat Index: 32°   Visibility: 10mi
Dew Point: 19°   Wind: 7mph
Humidity: 60%   Direction: 10°N
Pressure: 30.42"   Gusts: NA
Location:  35.49°N, 85.01°W
Report Text: KRZR 280435Z AUTO 01006KT 10SM OVC030 00/M07 A3042 RMK
Loading
Personal Weather Stations






























Interactive Weather Map New forecast layout! Learn more

10-Day Weather Forecast

Advertisements
Track Severe Weather on mobile